Time;durP1;ratioP1;P1;durP2;ratioP2;P2;SDS_P1;SDS_P2;PMS_P1;PMS_P2;Temp;Humidity;BMP_temperature;BMP_pressure;BME280_temperature;BME280_humidity;BME280_pressure;Samples;Min_cycle;Max_cycle;Signal;HPM_P1;HPM_P2
2023/01/20 00:01:51;;;;;;;;;;;;;;;-4.42;100.00;95893.50;5048224;28;19974;-72
2023/01/20 00:04:19;;;;;;;;;;;;;;;-4.40;100.00;95887.88;5059796;28;19924;-73
2023/01/20 00:06:45;;;;;;;;;;;;;;;-4.32;100.00;95894.44;5067918;28;19939;-72
2023/01/20 00:09:12;;;;;;;;;;;;;;;-4.36;100.00;95893.44;5076026;28;20285;-71
2023/01/20 00:11:38;;;;;;;;;;;;;;;-4.33;100.00;95904.34;5052168;28;19963;-73
2023/01/20 00:14:03;;;;;;;;;;;;;;;-4.29;100.00;95901.88;5042319;28;19916;-71
2023/01/20 00:16:30;;;;;;;;;;;;;;;-4.18;100.00;95902.53;5010395;28;19921;-73
2023/01/20 00:18:55;;;;;;;;;;;;;;;-4.14;100.00;95912.38;5026743;28;19924;-72
2023/01/20 00:21:21;;;;;;;;;;;;;;;-4.15;100.00;95908.09;5040114;28;21487;-73
2023/01/20 00:23:47;;;;;;;;;;;;;;;-4.19;100.00;95909.75;5044926;28;20401;-73
2023/01/20 00:26:16;;;;;;;;;;;;;;;-4.15;100.00;95902.75;5042697;28;20369;-72
2023/01/20 00:28:42;;;;;;;;;;;;;;;-4.15;100.00;95904.63;5031334;28;19921;-72
2023/01/20 00:31:13;;;;;;;;;;;;;;;-4.17;100.00;95914.81;5049270;28;20333;-73
2023/01/20 00:33:38;;;;;;;;;;;;;;;-4.20;100.00;95918.84;5060215;28;19921;-74
2023/01/20 00:36:04;;;;;;;;;;;;;;;-4.23;100.00;95916.78;5048016;28;19969;-73
2023/01/20 00:38:29;;;;;;;;;;;;;;;-4.26;100.00;95920.81;5027270;28;20321;-73
2023/01/20 00:40:55;;;;;;;;;;;;;;;-4.20;100.00;95923.41;5043361;28;19917;-72
2023/01/20 00:43:20;;;;;;;;;;;;;;;-4.22;100.00;95932.50;5039276;28;19917;-72
2023/01/20 00:45:46;;;;;;;;;;;;;;;-4.22;100.00;95923.72;5026778;28;19917;-72
2023/01/20 00:48:11;;;;;;;;;;;;;;;-4.20;100.00;95934.13;5051023;28;20369;-73
2023/01/20 00:50:36;;;;;;;;;;;;;;;-4.16;100.00;95927.09;5049745;28;20013;-74
2023/01/20 00:53:02;;;;;;;;;;;;;;;-4.18;100.00;95924.72;5042536;28;19928;-74
2023/01/20 00:55:27;;;;;;;;;;;;;;;-4.18;100.00;95935.41;5037907;28;19917;-73
2023/01/20 00:57:52;;;;;;;;;;;;;;;-4.14;100.00;95935.63;5024152;28;19921;-74
2023/01/20 01:00:18;;;;;;;;;;;;;;;-4.12;100.00;95939.59;5017997;28;19924;-73
2023/01/20 01:02:44;;;;;;;;;;;;;;;-4.09;100.00;95946.25;5023331;28;19916;-74
2023/01/20 01:05:12;;;;;;;;;;;;;;;-4.10;100.00;95948.13;5001938;28;19928;-73
2023/01/20 01:07:37;;;;;;;;;;;;;;;-4.06;100.00;95951.81;5026903;28;19921;-71
2023/01/20 01:10:03;;;;;;;;;;;;;;;-4.00;100.00;95957.88;5018649;28;19956;-74
2023/01/20 01:12:29;;;;;;;;;;;;;;;-3.94;100.00;95956.72;4984887;28;20357;-71
2023/01/20 01:14:55;;;;;;;;;;;;;;;-3.88;100.00;95960.09;4997897;28;20008;-72
2023/01/20 01:17:22;;;;;;;;;;;;;;;-3.92;100.00;95961.78;5005901;28;19940;-71
2023/01/20 01:19:48;;;;;;;;;;;;;;;-3.93;100.00;95966.31;5029811;28;20015;-71
2023/01/20 01:22:13;;;;;;;;;;;;;;;-3.90;100.00;95965.75;5006372;28;20023;-73
2023/01/20 01:24:41;;;;;;;;;;;;;;;-3.92;100.00;95967.13;5021794;28;19928;-73
2023/01/20 01:27:07;;;;;;;;;;;;;;;-3.91;100.00;95974.06;5036872;28;19916;-72
2023/01/20 01:29:32;;;;;;;;;;;;;;;-3.90;100.00;95975.66;5037326;28;19946;-71
2023/01/20 01:31:57;;;;;;;;;;;;;;;-3.91;100.00;95979.41;5043480;28;20370;-71
2023/01/20 01:34:23;;;;;;;;;;;;;;;-3.91;100.00;95974.84;5038668;28;20471;-74
2023/01/20 01:36:48;;;;;;;;;;;;;;;-3.89;100.00;95978.03;5043306;28;19920;-73
2023/01/20 01:39:13;;;;;;;;;;;;;;;-3.87;100.00;95977.72;5039099;28;19924;-71
2023/01/20 01:41:38;;;;;;;;;;;;;;;-3.85;100.00;95981.72;5042307;28;19927;-72
2023/01/20 01:44:06;;;;;;;;;;;;;;;-3.86;100.00;95982.78;5020111;28;19916;-72
2023/01/20 01:46:31;;;;;;;;;;;;;;;-3.87;100.00;95975.88;5042192;28;19924;-71
2023/01/20 01:48:57;;;;;;;;;;;;;;;-3.86;100.00;95992.72;5050757;28;19931;-72
2023/01/20 01:51:24;;;;;;;;;;;;;;;-3.85;100.00;95984.41;5043629;28;19936;-71
2023/01/20 01:54:01;;;;;;;;;;;;;;;-3.85;100.00;95984.41;5042754;28;19917;-71
2023/01/20 01:56:28;;;;;;;;;;;;;;;-3.84;100.00;95985.97;5023327;28;19931;-69
2023/01/20 01:58:55;;;;;;;;;;;;;;;-3.85;100.00;95986.28;5022762;28;19917;-71
2023/01/20 02:01:20;;;;;;;;;;;;;;;-3.83;100.00;95994.81;5017661;28;19924;-70
2023/01/20 02:04:07;;;;;;;;;;;;;;;-3.86;100.00;95985.47;5022769;28;19917;-69
2023/01/20 02:06:34;;;;;;;;;;;;;;;-3.86;100.00;95990.81;5021907;28;19921;-70
2023/01/20 02:09:00;;;;;;;;;;;;;;;-3.87;99.82;95985.75;5004873;28;19936;-71
2023/01/20 02:11:26;;;;;;;;;;;;;;;-3.88;100.00;95995.66;5016110;28;20366;-72
2023/01/20 02:13:52;;;;;;;;;;;;;;;-3.90;100.00;95997.06;5023652;28;20533;-72
2023/01/20 02:16:25;;;;;;;;;;;;;;;-3.92;100.00;96000.03;5018284;28;20015;-72
2023/01/20 02:19:00;;;;;;;;;;;;;;;-3.93;100.00;95992.28;5022981;28;19971;-72
2023/01/20 02:21:28;;;;;;;;;;;;;;;-3.91;99.94;96001.59;5018191;28;19960;-71
2023/01/20 02:23:56;;;;;;;;;;;;;;;-3.88;100.00;96009.06;5030957;28;20425;-71
2023/01/20 02:26:38;;;;;;;;;;;;;;;-3.89;100.00;96003.97;5037687;28;20137;-70
2023/01/20 02:29:03;;;;;;;;;;;;;;;-3.90;100.00;96008.56;5040760;28;19920;-72
2023/01/20 02:31:45;;;;;;;;;;;;;;;-3.95;100.00;96005.94;5042031;28;19974;-72
2023/01/20 02:34:15;;;;;;;;;;;;;;;-3.93;100.00;96006.44;5039776;28;19921;-71
2023/01/20 02:36:54;;;;;;;;;;;;;;;-3.84;100.00;96015.41;5042405;28;19963;-72
2023/01/20 02:39:26;;;;;;;;;;;;;;;-3.90;100.00;96016.56;5039018;28;19946;-72
2023/01/20 02:41:55;;;;;;;;;;;;;;;-3.93;100.00;96011.00;5042532;28;20378;-72
2023/01/20 02:44:20;;;;;;;;;;;;;;;-3.94;100.00;96020.13;5039705;28;19917;-71
2023/01/20 02:47:01;;;;;;;;;;;;;;;-3.95;100.00;96018.53;5049127;28;20404;-71
2023/01/20 02:49:49;;;;;;;;;;;;;;;-3.96;100.00;96023.09;5027906;28;20286;-69
2023/01/20 02:52:38;;;;;;;;;;;;;;;-3.96;100.00;96016.94;5034141;28;19928;-70
2023/01/20 02:55:06;;;;;;;;;;;;;;;-3.99;100.00;96023.66;5046212;28;19962;-71
2023/01/20 02:57:42;;;;;;;;;;;;;;;-4.00;100.00;96023.94;5073532;28;19928;-71
2023/01/20 03:00:20;;;;;;;;;;;;;;;-3.99;100.00;96029.03;5065979;28;20305;-71
2023/01/20 03:02:47;;;;;;;;;;;;;;;-4.00;100.00;96026.63;5063360;28;19924;-71
2023/01/20 03:05:16;;;;;;;;;;;;;;;-4.01;100.00;96033.09;5056071;28;20627;-73
2023/01/20 03:07:43;;;;;;;;;;;;;;;-4.00;100.00;96035.44;5060717;28;19924;-72
2023/01/20 03:10:10;;;;;;;;;;;;;;;-4.01;100.00;96033.88;5036423;28;19921;-71
2023/01/20 03:12:42;;;;;;;;;;;;;;;-4.00;100.00;96038.13;5060241;28;20011;-71
2023/01/20 03:15:08;;;;;;;;;;;;;;;-4.00;100.00;96040.00;5040569;28;20377;-71
2023/01/20 03:17:34;;;;;;;;;;;;;;;-3.99;98.99;96039.72;5047264;28;19924;-71
2023/01/20 03:20:00;;;;;;;;;;;;;;;-4.03;99.79;96039.50;5047944;28;19920;-70
2023/01/20 03:22:25;;;;;;;;;;;;;;;-4.01;100.00;96041.88;5061719;28;19916;-72
2023/01/20 03:24:51;;;;;;;;;;;;;;;-4.00;99.82;96040.00;5056596;28;19917;-72
2023/01/20 03:27:16;;;;;;;;;;;;;;;-3.99;99.62;96045.06;5067629;28;19916;-71
2023/01/20 03:29:42;;;;;;;;;;;;;;;-3.97;99.36;96047.47;5044810;28;20346;-70
2023/01/20 03:32:09;;;;;;;;;;;;;;;-3.96;99.91;96051.72;5041527;28;19921;-71
2023/01/20 03:34:36;;;;;;;;;;;;;;;-4.01;100.00;96047.25;5045895;28;19917;-72
2023/01/20 03:37:03;;;;;;;;;;;;;;;-4.05;99.59;96048.91;5051205;28;20019;-72
2023/01/20 03:39:28;;;;;;;;;;;;;;;-4.02;99.31;96051.00;5056372;28;20385;-70
2023/01/20 03:41:56;;;;;;;;;;;;;;;-4.00;99.11;96050.69;5065519;28;19924;-71
2023/01/20 03:44:30;;;;;;;;;;;;;;;-3.99;99.65;96058.44;5040508;28;20707;-71
2023/01/20 03:46:55;;;;;;;;;;;;;;;-3.96;99.25;96063.22;5065187;28;20512;-70
2023/01/20 03:49:43;;;;;;;;;;;;;;;-3.88;98.89;96065.22;5058166;28;19993;-69
2023/01/20 03:52:24;;;;;;;;;;;;;;;-3.93;98.86;96065.31;5064286;28;19947;-70
2023/01/20 03:54:52;;;;;;;;;;;;;;;-3.97;98.46;96066.19;5025568;28;19925;-72
2023/01/20 03:57:20;;;;;;;;;;;;;;;-3.95;98.78;96070.16;5046216;28;19916;-70
2023/01/20 03:59:47;;;;;;;;;;;;;;;-3.97;98.13;96072.31;5065613;28;19962;-72
2023/01/20 04:02:12;;;;;;;;;;;;;;;-3.93;98.20;96078.69;5041895;28;20428;-72
2023/01/20 04:04:39;;;;;;;;;;;;;;;-3.91;97.13;96078.41;5063984;28;19921;-73
2023/01/20 04:07:05;;;;;;;;;;;;;;;-3.95;97.04;96080.84;5041406;28;19978;-71
2023/01/20 04:09:33;;;;;;;;;;;;;;;-3.93;96.98;96077.91;5065033;28;19967;-73
2023/01/20 04:11:58;;;;;;;;;;;;;;;-3.92;96.26;96082.97;5061345;28;19943;-72
2023/01/20 04:14:24;;;;;;;;;;;;;;;-3.96;97.48;96079.28;5058483;28;20393;-72
2023/01/20 04:16:54;;;;;;;;;;;;;;;-3.96;97.17;96086.47;5063734;28;20011;-72
2023/01/20 04:19:20;;;;;;;;;;;;;;;-3.97;97.60;96088.38;5063208;28;19920;-73
2023/01/20 04:21:48;;;;;;;;;;;;;;;-3.98;97.85;96094.00;5038476;28;19916;-72
2023/01/20 04:24:20;;;;;;;;;;;;;;;-4.00;98.01;96088.94;5030121;28;20309;-72
2023/01/20 04:26:45;;;;;;;;;;;;;;;-3.98;97.90;96094.00;5024970;28;19928;-73
2023/01/20 04:29:10;;;;;;;;;;;;;;;-3.96;98.44;96092.66;5039937;28;19925;-72
2023/01/20 04:31:36;;;;;;;;;;;;;;;-3.97;98.44;96098.28;5044258;28;20026;-71
2023/01/20 04:34:01;;;;;;;;;;;;;;;-3.99;97.80;96100.47;5010007;28;19921;-73
2023/01/20 04:36:27;;;;;;;;;;;;;;;-4.03;98.62;96103.69;5021853;28;19924;-72
2023/01/20 04:38:52;;;;;;;;;;;;;;;-3.98;98.28;96107.38;5025103;28;19927;-71
2023/01/20 04:41:17;;;;;;;;;;;;;;;-3.90;98.25;96112.09;5039394;28;20361;-71
2023/01/20 04:43:44;;;;;;;;;;;;;;;-3.96;98.39;96114.06;5025657;28;20389;-71
2023/01/20 04:46:13;;;;;;;;;;;;;;;-3.98;98.99;96115.41;5020911;28;19921;-71
2023/01/20 04:48:39;;;;;;;;;;;;;;;-4.01;98.35;96116.00;5029823;28;19925;-71
2023/01/20 04:51:04;;;;;;;;;;;;;;;-4.01;98.43;96113.31;5047472;28;19916;-72
2023/01/20 04:53:30;;;;;;;;;;;;;;;-4.00;98.80;96125.59;5043725;28;20011;-71
2023/01/20 04:55:55;;;;;;;;;;;;;;;-4.00;98.49;96130.97;5043410;28;19928;-71
2023/01/20 04:58:20;;;;;;;;;;;;;;;-4.05;98.85;96129.16;5039457;28;20391;-72
2023/01/20 05:00:46;;;;;;;;;;;;;;;-4.04;98.76;96128.84;5043945;28;19932;-71
2023/01/20 05:03:11;;;;;;;;;;;;;;;-4.06;98.99;96135.56;5038726;28;19931;-70
2023/01/20 05:05:36;;;;;;;;;;;;;;;-4.06;98.73;96139.03;5024827;28;19935;-70
2023/01/20 05:08:03;;;;;;;;;;;;;;;-4.07;98.70;96147.34;5044210;28;19987;-72
2023/01/20 05:10:29;;;;;;;;;;;;;;;-4.07;98.92;96156.19;5040409;28;20488;-69
2023/01/20 05:12:54;;;;;;;;;;;;;;;-4.07;99.30;96150.03;5026618;28;19921;-72
2023/01/20 05:15:20;;;;;;;;;;;;;;;-4.10;99.66;96154.06;5035186;28;19939;-72
2023/01/20 05:17:45;;;;;;;;;;;;;;;-4.10;99.11;96153.28;5043796;28;20015;-73
2023/01/20 05:20:10;;;;;;;;;;;;;;;-4.08;99.92;96161.81;5034422;28;19917;-73
2023/01/20 05:22:36;;;;;;;;;;;;;;;-4.11;99.20;96162.38;5054356;28;19916;-72
2023/01/20 05:25:01;;;;;;;;;;;;;;;-4.11;99.15;96170.41;5058381;28;19943;-72
2023/01/20 05:27:26;;;;;;;;;;;;;;;-4.13;99.19;96168.00;5066947;28;20365;-71
2023/01/20 05:29:51;;;;;;;;;;;;;;;-4.13;99.29;96173.34;5065070;28;19916;-69
2023/01/20 05:32:17;;;;;;;;;;;;;;;-4.12;100.00;96171.50;5058598;28;20366;-68
2023/01/20 05:34:42;;;;;;;;;;;;;;;-4.13;98.53;96183.28;5062045;28;19916;-69
2023/01/20 05:37:07;;;;;;;;;;;;;;;-4.13;98.99;96183.28;5057077;28;19920;-69
2023/01/20 05:39:32;;;;;;;;;;;;;;;-4.09;99.38;96186.97;5062278;28;19944;-69
2023/01/20 05:41:58;;;;;;;;;;;;;;;-4.10;97.57;96188.06;5063227;28;19958;-69
2023/01/20 05:44:23;;;;;;;;;;;;;;;-4.09;98.26;96194.97;5056039;28;20699;-69
2023/01/20 05:46:48;;;;;;;;;;;;;;;-4.10;97.72;96194.19;5041698;28;19929;-68
2023/01/20 05:49:13;;;;;;;;;;;;;;;-4.09;98.75;96197.66;5045280;28;19925;-69
2023/01/20 05:51:39;;;;;;;;;;;;;;;-4.10;98.57;96204.09;5057154;28;19932;-69
2023/01/20 05:54:04;;;;;;;;;;;;;;;-4.11;99.24;96200.63;5057078;28;20012;-68
2023/01/20 05:56:30;;;;;;;;;;;;;;;-4.08;98.99;96200.06;5044100;28;20038;-69
2023/01/20 05:58:55;;;;;;;;;;;;;;;-4.10;98.22;96209.47;5062526;28;20301;-69
2023/01/20 06:01:20;;;;;;;;;;;;;;;-4.06;98.56;96213.94;5058030;28;19923;-70
2023/01/20 06:03:46;;;;;;;;;;;;;;;-4.05;97.45;96210.19;5062748;28;19935;-70
2023/01/20 06:06:17;;;;;;;;;;;;;;;-4.06;98.62;96211.25;5055899;28;19931;-70
2023/01/20 06:08:42;;;;;;;;;;;;;;;-4.08;98.77;96215.31;5062320;28;19928;-70
2023/01/20 06:11:08;;;;;;;;;;;;;;;-4.09;98.56;96211.84;5057682;28;19916;-69
2023/01/20 06:13:34;;;;;;;;;;;;;;;-4.05;99.66;96215.53;5042670;28;20304;-69
2023/01/20 06:16:00;;;;;;;;;;;;;;;-3.74;98.63;96211.72;5061999;28;19927;-69
2023/01/20 06:18:25;;;;;;;;;;;;;;;-3.45;95.85;96206.25;5054787;28;19916;-70
2023/01/20 06:20:50;;;;;;;;;;;;;;;-3.57;96.60;96217.38;5060674;28;20270;-67
2023/01/20 06:23:16;;;;;;;;;;;;;;;-3.64;96.86;96233.00;5054687;28;19924;-68
2023/01/20 06:25:42;;;;;;;;;;;;;;;-3.76;98.27;96236.09;5056954;28;20312;-69
2023/01/20 06:28:08;;;;;;;;;;;;;;;-3.51;98.81;96255.59;5056379;28;19920;-68
2023/01/20 06:30:34;;;;;;;;;;;;;;;-3.60;96.27;96259.97;5047470;28;20385;-69
2023/01/20 06:32:59;;;;;;;;;;;;;;;-3.82;97.48;96258.63;5041972;28;19916;-69
2023/01/20 06:35:24;;;;;;;;;;;;;;;-3.81;97.79;96262.91;5034290;28;19928;-68
2023/01/20 06:37:50;;;;;;;;;;;;;;;-3.61;97.79;96261.88;5024831;28;19917;-70
2023/01/20 06:40:15;;;;;;;;;;;;;;;-3.66;100.00;96260.03;5049749;28;20176;-68
2023/01/20 06:42:41;;;;;;;;;;;;;;;-3.68;98.72;96259.53;5042711;28;19923;-67
2023/01/20 06:45:06;;;;;;;;;;;;;;;-3.76;98.32;96268.19;5037225;28;19921;-67
2023/01/20 06:47:32;;;;;;;;;;;;;;;-3.85;99.11;96276.06;5044790;28;19925;-71
2023/01/20 06:49:57;;;;;;;;;;;;;;;-3.87;100.00;96283.56;5055314;28;19975;-68
2023/01/20 06:52:22;;;;;;;;;;;;;;;-3.96;100.00;96282.59;5039905;28;20889;-67
2023/01/20 06:54:47;;;;;;;;;;;;;;;-3.94;100.00;96280.44;5045823;28;19943;-67
2023/01/20 06:57:13;;;;;;;;;;;;;;;-3.93;100.00;96286.56;5021427;28;20007;-65
2023/01/20 06:59:38;;;;;;;;;;;;;;;-4.04;100.00;96294.69;5013701;28;20316;-67
2023/01/20 07:02:03;;;;;;;;;;;;;;;-4.10;100.00;96301.19;5003768;28;19917;-66
2023/01/20 07:04:29;;;;;;;;;;;;;;;-4.12;100.00;96311.38;5035752;28;19921;-66
2023/01/20 07:06:54;;;;;;;;;;;;;;;-4.06;100.00;96306.78;5045775;28;19988;-67
2023/01/20 07:09:19;;;;;;;;;;;;;;;-4.04;100.00;96312.63;5026555;28;20412;-67
2023/01/20 07:11:45;;;;;;;;;;;;;;;-3.99;100.00;96312.59;5025958;28;20027;-66
2023/01/20 07:14:10;;;;;;;;;;;;;;;-4.05;100.00;96319.06;5019171;28;19917;-68
2023/01/20 07:16:36;;;;;;;;;;;;;;;-4.07;100.00;96332.72;5024863;28;20362;-67
2023/01/20 07:19:01;;;;;;;;;;;;;;;-4.07;100.00;96327.38;5025817;28;20420;-66
2023/01/20 07:21:27;;;;;;;;;;;;;;;-3.93;100.00;96330.16;5021769;28;19925;-66
2023/01/20 07:23:52;;;;;;;;;;;;;;;-3.74;100.00;96330.28;5014993;28;19917;-66
2023/01/20 07:26:19;;;;;;;;;;;;;;;-3.55;100.00;96334.88;5039338;28;19916;-67
2023/01/20 07:28:44;;;;;;;;;;;;;;;-3.28;97.57;96334.31;5041525;28;19925;-67
2023/01/20 07:31:14;;;;;;;;;;;;;;;-3.57;97.89;96345.09;5039238;28;19995;-66
2023/01/20 07:33:39;;;;;;;;;;;;;;;-3.58;98.31;96346.97;5042611;28;19975;-67
2023/01/20 07:36:05;;;;;;;;;;;;;;;-3.58;97.99;96344.28;5039257;28;19944;-66
2023/01/20 07:38:31;;;;;;;;;;;;;;;-3.58;98.51;96349.66;5026946;28;19971;-70
2023/01/20 07:41:00;;;;;;;;;;;;;;;-3.53;98.81;96359.50;5045247;28;19916;-67
2023/01/20 07:43:26;;;;;;;;;;;;;;;-3.24;98.43;96367.50;5036981;28;19952;-67
2023/01/20 07:45:58;;;;;;;;;;;;;;;-3.05;97.65;96366.72;5058965;28;19917;-67
2023/01/20 07:48:24;;;;;;;;;;;;;;;-2.94;97.29;96368.19;5033676;28;20319;-67
2023/01/20 07:50:56;;;;;;;;;;;;;;;-3.06;95.74;96373.97;5043785;28;19917;-67
2023/01/20 07:53:21;;;;;;;;;;;;;;;-3.37;97.30;96376.97;5021869;28;19917;-68
2023/01/20 07:55:47;;;;;;;;;;;;;;;-3.41;97.60;96378.63;5044894;28;19992;-67
2023/01/20 07:58:12;;;;;;;;;;;;;;;-3.38;98.09;96380.75;5039764;28;20436;-67
2023/01/20 08:00:37;;;;;;;;;;;;;;;-3.17;98.67;96377.84;5045917;28;20389;-68
2023/01/20 08:03:03;;;;;;;;;;;;;;;-2.94;97.79;96389.63;5024195;28;19960;-65
2023/01/20 08:05:28;;;;;;;;;;;;;;;-2.83;96.26;96391.09;5039336;28;19920;-66
2023/01/20 08:07:53;;;;;;;;;;;;;;;-2.97;94.99;96392.88;5042292;28;20294;-68
2023/01/20 08:10:19;;;;;;;;;;;;;;;-2.99;95.83;96395.03;5050276;28;20616;-68
2023/01/20 08:12:44;;;;;;;;;;;;;;;-2.80;95.63;96393.19;5028534;28;19917;-69
2023/01/20 08:15:09;;;;;;;;;;;;;;;-2.61;95.30;96403.13;5041296;28;20008;-68
2023/01/20 08:17:34;;;;;;;;;;;;;;;-2.38;94.79;96410.31;5046442;28;20302;-68
2023/01/20 08:20:00;;;;;;;;;;;;;;;-2.10;93.29;96410.47;5046516;28;19924;-68
2023/01/20 08:22:25;;;;;;;;;;;;;;;-2.24;91.90;96410.38;5021745;28;19924;-67
2023/01/20 08:24:50;;;;;;;;;;;;;;;-2.51;94.01;96414.53;5025200;28;19921;-66
2023/01/20 08:27:16;;;;;;;;;;;;;;;-2.77;96.07;96419.44;5035479;28;19925;-66
2023/01/20 08:29:41;;;;;;;;;;;;;;;-2.52;95.91;96425.53;5052297;28;20783;-66
2023/01/20 08:32:06;;;;;;;;;;;;;;;-2.18;94.39;96427.22;5039889;28;19927;-66
2023/01/20 08:34:32;;;;;;;;;;;;;;;-2.02;93.73;96425.88;5025747;28;19940;-69
2023/01/20 08:36:57;;;;;;;;;;;;;;;-1.83;92.33;96436.59;5034170;28;20395;-67
2023/01/20 08:39:23;;;;;;;;;;;;;;;-1.70;91.71;96439.63;5003740;28;20170;-67
2023/01/20 08:41:51;;;;;;;;;;;;;;;-1.76;91.42;96445.09;5007227;28;19921;-67
2023/01/20 08:44:17;;;;;;;;;;;;;;;-1.62;92.28;96441.63;4982397;28;19917;-67
2023/01/20 08:46:43;;;;;;;;;;;;;;;-1.87;92.62;96446.34;5043919;28;20003;-67
2023/01/20 08:49:10;;;;;;;;;;;;;;;-2.35;96.80;96443.81;5038089;28;20023;-67
2023/01/20 08:51:36;;;;;;;;;;;;;;;-2.47;98.65;96451.50;5054067;28;20246;-67
2023/01/20 08:54:01;;;;;;;;;;;;;;;-2.55;100.00;96451.06;5060772;28;19920;-66
2023/01/20 08:56:27;;;;;;;;;;;;;;;-2.49;100.00;96451.78;5061369;28;19955;-67
2023/01/20 08:58:53;;;;;;;;;;;;;;;-2.52;100.00;96460.38;5038608;28;20289;-70
2023/01/20 09:01:20;;;;;;;;;;;;;;;-2.24;100.00;96457.91;5041390;28;20441;-72
2023/01/20 09:03:45;;;;;;;;;;;;;;;-2.03;100.00;96466.47;5045959;28;20010;-72
2023/01/20 09:06:11;;;;;;;;;;;;;;;-2.25;100.00;96467.03;5005936;28;19956;-70
2023/01/20 09:08:37;;;;;;;;;;;;;;;-2.37;100.00;96476.28;5046115;28;19921;-71
2023/01/20 09:11:03;;;;;;;;;;;;;;;-2.32;100.00;96476.22;5025773;28;20344;-71
2023/01/20 09:13:28;;;;;;;;;;;;;;;-2.12;100.00;96480.53;5042449;28;19956;-72
2023/01/20 09:15:54;;;;;;;;;;;;;;;-1.62;100.00;96484.59;5045224;28;19947;-71
2023/01/20 09:18:19;;;;;;;;;;;;;;;-1.46;100.00;96487.84;5021085;28;19917;-71
2023/01/20 09:20:44;;;;;;;;;;;;;;;-1.86;100.00;96490.09;5027132;28;20416;-71
2023/01/20 09:23:10;;;;;;;;;;;;;;;-2.47;100.00;96483.69;5020860;28;19921;-72
2023/01/20 09:25:35;;;;;;;;;;;;;;;-2.37;100.00;96488.91;5043087;28;19920;-70
2023/01/20 09:28:00;;;;;;;;;;;;;;;-2.16;100.00;96487.56;5041890;28;19924;-70
2023/01/20 09:30:26;;;;;;;;;;;;;;;-2.13;100.00;96495.00;5036543;28;20024;-71
2023/01/20 09:32:54;;;;;;;;;;;;;;;-1.89;100.00;96493.34;5043598;28;19964;-71
2023/01/20 09:35:19;;;;;;;;;;;;;;;-1.93;100.00;96491.25;5020410;28;19921;-71
2023/01/20 09:43:54;;;;;;;;;;;;;;;-1.16;100.00;96505.34;5052013;28;19916;-70
2023/01/20 09:46:22;;;;;;;;;;;;;;;-1.32;100.00;96507.50;5035669;28;19927;-69
2023/01/20 09:54:27;;;;;;;;;;;;;;;-0.96;100.00;96517.63;5021120;28;20138;-68
2023/01/20 09:56:55;;;;;;;;;;;;;;;-0.36;100.00;96516.78;5041372;28;20388;-70
2023/01/20 09:59:30;;;;;;;;;;;;;;;0.27;100.00;96517.03;5054186;28;19928;-71
2023/01/20 10:01:59;;;;;;;;;;;;;;;0.42;100.00;96518.59;5074032;28;19923;-71
2023/01/20 10:04:25;;;;;;;;;;;;;;;0.60;100.00;96520.31;5041382;28;19924;-70
2023/01/20 10:06:56;;;;;;;;;;;;;;;0.90;100.00;96512.56;5064076;28;20304;-70
2023/01/20 10:09:27;;;;;;;;;;;;;;;1.18;100.00;96520.50;5042116;28;19920;-72
2023/01/20 10:12:00;;;;;;;;;;;;;;;1.10;96.49;96522.06;5069587;28;19920;-69
2023/01/20 10:14:32;;;;;;;;;;;;;;;0.93;99.54;96518.13;5043942;28;19927;-71
2023/01/20 10:17:11;;;;;;;;;;;;;;;1.14;98.84;96526.50;5035842;28;19924;-72
2023/01/20 10:19:57;;;;;;;;;;;;;;;0.99;97.80;96531.50;5035377;28;19928;-71
2023/01/20 10:22:29;;;;;;;;;;;;;;;1.04;99.29;96528.66;5023407;28;19982;-72
2023/01/20 10:24:54;;;;;;;;;;;;;;;1.14;100.00;96529.19;5051755;28;19920;-71
2023/01/20 10:27:24;;;;;;;;;;;;;;;1.17;99.45;96527.00;5046156;28;20307;-70
2023/01/20 10:29:54;;;;;;;;;;;;;;;1.13;98.57;96527.63;5030182;28;19929;-72
2023/01/20 10:32:32;;;;;;;;;;;;;;;1.15;98.88;96532.69;5020283;28;19928;-73
2023/01/20 10:34:59;;;;;;;;;;;;;;;0.72;100.00;96528.66;5043668;28;20301;-72
2023/01/20 10:37:25;;;;;;;;;;;;;;;0.49;100.00;96532.44;5031163;28;19924;-71
2023/01/20 10:39:53;;;;;;;;;;;;;;;0.87;100.00;96532.84;5063471;28;19916;-71
2023/01/20 10:42:19;;;;;;;;;;;;;;;0.65;100.00;96540.94;5040257;28;19992;-72
2023/01/20 10:44:46;;;;;;;;;;;;;;;0.91;100.00;96536.53;5061024;28;20294;-71
2023/01/20 10:47:14;;;;;;;;;;;;;;;1.21;100.00;96536.06;5035862;28;20009;-72
2023/01/20 10:49:58;;;;;;;;;;;;;;;1.45;99.88;96543.78;5043763;28;19931;-72
2023/01/20 10:52:42;;;;;;;;;;;;;;;1.56;100.00;96537.00;5011152;28;19935;-71
2023/01/20 10:55:22;;;;;;;;;;;;;;;1.95;98.38;96534.59;5055569;28;19916;-73
2023/01/20 10:57:54;;;;;;;;;;;;;;;2.63;92.46;96537.69;5046246;28;19916;-73
2023/01/20 11:00:24;;;;;;;;;;;;;;;2.87;90.13;96532.53;5053155;28;19923;-72
2023/01/20 11:02:51;;;;;;;;;;;;;;;2.72;88.53;96538.47;5064058;28;19920;-72
2023/01/20 11:05:36;;;;;;;;;;;;;;;3.06;86.44;96529.50;5039992;28;19921;-72
2023/01/20 11:08:06;;;;;;;;;;;;;;;3.53;86.13;96530.59;5041116;28;19925;-71
2023/01/20 11:10:32;;;;;;;;;;;;;;;3.65;83.14;96533.44;5035815;28;20385;-72
2023/01/20 11:12:58;;;;;;;;;;;;;;;3.72;79.47;96535.63;5029515;28;19994;-72
2023/01/20 11:15:27;;;;;;;;;;;;;;;4.15;77.84;96534.59;5028128;28;20020;-72
2023/01/20 11:18:11;;;;;;;;;;;;;;;3.90;78.48;96530.94;5026079;28;20016;-72
2023/01/20 11:20:37;;;;;;;;;;;;;;;3.03;82.04;96530.13;5043735;28;20509;-71
2023/01/20 11:23:02;;;;;;;;;;;;;;;3.21;79.99;96530.09;5023300;28;19932;-71
2023/01/20 11:25:27;;;;;;;;;;;;;;;3.45;78.77;96533.03;5025226;28;20284;-72
2023/01/20 11:27:53;;;;;;;;;;;;;;;2.35;82.76;96548.00;5063987;28;19921;-72
2023/01/20 11:30:21;;;;;;;;;;;;;;;2.45;83.26;96545.78;5047371;28;19917;-71
2023/01/20 11:33:05;;;;;;;;;;;;;;;2.23;81.87;96541.31;5044836;28;19982;-71
2023/01/20 11:35:30;;;;;;;;;;;;;;;2.46;82.17;96533.84;5061151;28;20015;-71
2023/01/20 11:37:56;;;;;;;;;;;;;;;2.40;82.55;96542.44;5038899;28;19921;-71
2023/01/20 11:40:23;;;;;;;;;;;;;;;2.08;84.02;96545.25;5048068;28;20411;-71
2023/01/20 11:42:50;;;;;;;;;;;;;;;2.20;83.25;96543.84;5029625;28;19916;-73
2023/01/20 11:45:34;;;;;;;;;;;;;;;2.36;84.42;96544.97;5041637;28;20015;-72
2023/01/20 11:48:12;;;;;;;;;;;;;;;1.84;86.42;96537.56;5047778;28;19928;-71
2023/01/20 11:50:39;;;;;;;;;;;;;;;1.60;89.55;96540.66;5029312;28;20031;-71
2023/01/20 11:53:12;;;;;;;;;;;;;;;1.46;89.00;96542.66;5043144;28;20465;-70
2023/01/20 11:55:54;;;;;;;;;;;;;;;1.43;87.60;96541.41;5042774;28;19966;-72
2023/01/20 11:58:21;;;;;;;;;;;;;;;1.53;87.96;96543.84;5044470;28;19927;-72
2023/01/20 12:00:48;;;;;;;;;;;;;;;1.17;89.23;96538.59;5048800;28;19922;-72
2023/01/20 12:03:32;;;;;;;;;;;;;;;1.33;89.51;96539.78;5044197;28;20372;-71
2023/01/20 12:06:09;;;;;;;;;;;;;;;1.37;88.11;96545.34;5045987;28;19970;-72
2023/01/20 12:08:58;;;;;;;;;;;;;;;1.39;88.82;96547.72;5048936;28;19927;-72
2023/01/20 12:11:29;;;;;;;;;;;;;;;1.53;87.66;96548.41;5018019;28;20134;-72
2023/01/20 12:16:45;;;;;;;;;;;;;;;1.40;87.60;96549.31;5046881;28;20504;-71
2023/01/20 12:19:15;;;;;;;;;;;;;;;1.19;87.70;96549.88;5041831;28;19920;-72
2023/01/20 12:21:42;;;;;;;;;;;;;;;0.68;89.17;96557.28;5028238;28;20313;-72
2023/01/20 12:25:06;;;;;;;;;;;;;;;0.64;90.11;96555.53;5021929;28;19917;-71
2023/01/20 12:27:28;;;;;;;;;;;;;;;0.42;90.24;96559.81;5014718;28;19970;-71
2023/01/20 12:29:57;;;;;;;;;;;;;;;0.51;90.81;96557.97;5028857;28;19925;-70
2023/01/20 12:32:22;;;;;;;;;;;;;;;0.63;90.77;96562.84;5042491;28;20273;-71
2023/01/20 12:34:48;;;;;;;;;;;;;;;0.61;89.87;96558.84;5046257;28;20412;-71
2023/01/20 12:37:16;;;;;;;;;;;;;;;0.51;90.29;96566.06;5040187;28;19924;-71
2023/01/20 12:39:57;;;;;;;;;;;;;;;0.45;90.32;96567.28;5044253;28;19970;-70
2023/01/20 12:42:40;;;;;;;;;;;;;;;0.38;91.60;96565.00;5041493;28;20138;-71
2023/01/20 12:45:16;;;;;;;;;;;;;;;0.41;90.44;96568.19;5043862;28;19992;-71
2023/01/20 12:47:45;;;;;;;;;;;;;;;0.48;91.50;96571.25;5032924;28;19921;-71
2023/01/20 12:50:23;;;;;;;;;;;;;;;0.54;91.98;96568.16;5034201;28;19925;-71
2023/01/20 12:52:51;;;;;;;;;;;;;;;0.76;93.32;96577.34;5055411;28;19921;-70
2023/01/20 12:55:36;;;;;;;;;;;;;;;0.59;93.57;96571.81;5035085;28;20015;-71
2023/01/20 12:58:12;;;;;;;;;;;;;;;0.56;96.11;96573.25;5055095;28;19924;-71
2023/01/20 13:00:57;;;;;;;;;;;;;;;0.61;96.35;96575.78;5076074;28;20281;-71
2023/01/20 13:03:31;;;;;;;;;;;;;;;0.40;98.40;96580.03;5044443;28;19950;-73
2023/01/20 13:06:02;;;;;;;;;;;;;;;0.62;100.00;96584.69;5066211;28;20015;-73